Time;durP1;ratioP1;P1;durP2;ratioP2;P2;SDS_P1;SDS_P2;PMS_P1;PMS_P2;Temp;Humidity;BMP_temperature;BMP_pressure;BME280_temperature;BME280_humidity;BME280_pressure;Samples;Min_cycle;Max_cycle;Signal;HPM_P1;HPM_P2
2022/03/18 00:00:38;;;;;;;0.00;0.00;;;;;;;;;;4933008;29;20034;-70
2022/03/18 00:03:03;;;;;;;0.17;0.17;;;;;;;;;;4930117;29;20035;-70
2022/03/18 00:05:28;;;;;;;0.13;0.13;;;;;;;;;;4932165;29;20458;-70
2022/03/18 00:07:54;;;;;;;0.88;0.88;;;;;;;;;;4931973;29;20056;-70
2022/03/18 00:10:19;;;;;;;0.60;0.43;;;;;;;;;;4931510;29;20093;-69
2022/03/18 00:12:46;;;;;;;0.30;0.30;;;;;;;;;;4930788;29;20544;-68
2022/03/18 00:15:12;;;;;;;0.00;0.00;;;;;;;;;;4929757;29;20020;-68
2022/03/18 00:17:37;;;;;;;0.65;0.65;;;;;;;;;;4932457;29;20050;-68
2022/03/18 00:20:06;;;;;;;1.65;0.85;;;;;;;;;;4929158;29;20050;-68
2022/03/18 00:22:32;;;;;;;0.00;0.00;;;;;;;;;;4934090;29;20493;-67
2022/03/18 00:24:57;;;;;;;0.68;0.60;;;;;;;;;;4931005;29;20046;-66
2022/03/18 00:27:23;;;;;;;0.00;0.00;;;;;;;;;;4931599;29;20022;-65
2022/03/18 00:29:48;;;;;;;0.32;0.32;;;;;;;;;;4932541;29;20389;-66
2022/03/18 00:32:14;;;;;;;1.60;0.50;;;;;;;;;;4929470;29;20035;-65
2022/03/18 00:34:39;;;;;;;1.33;1.30;;;;;;;;;;4932737;29;20032;-65
2022/03/18 00:37:04;;;;;;;0.00;0.00;;;;;;;;;;4930473;29;20019;-66
2022/03/18 00:39:30;;;;;;;0.00;0.00;;;;;;;;;;4930533;29;20342;-66
2022/03/18 00:41:55;;;;;;;0.00;0.00;;;;;;;;;;4930124;29;20030;-66
2022/03/18 00:44:20;;;;;;;0.00;0.00;;;;;;;;;;4913231;29;20062;-67
2022/03/18 00:46:45;;;;;;;1.67;0.40;;;;;;;;;;4932203;29;20126;-68
2022/03/18 00:52:05;;;;;;;0.40;0.40;;;;;;;;;;4930709;29;20487;-67
2022/03/18 00:54:34;;;;;;;0.00;0.00;;;;;;;;;;4931238;29;20040;-68
2022/03/18 00:56:59;;;;;;;0.00;0.00;;;;;;;;;;4929495;29;20110;-68
2022/03/18 01:05:19;;;;;;;0.00;0.00;;;;;;;;;;4906331;29;20123;-66
2022/03/18 01:07:45;;;;;;;1.77;1.67;;;;;;;;;;4923435;29;20355;-67
2022/03/18 01:10:10;;;;;;;0.00;0.00;;;;;;;;;;4923578;29;20485;-67
2022/03/18 01:12:35;;;;;;;0.08;0.08;;;;;;;;;;4923180;29;20488;-67
2022/03/18 01:15:00;;;;;;;0.00;0.00;;;;;;;;;;4922618;29;20026;-67
2022/03/18 01:17:26;;;;;;;0.03;0.03;;;;;;;;;;4921422;29;20064;-67
2022/03/18 01:19:51;;;;;;;0.00;0.00;;;;;;;;;;4926208;29;20042;-67
2022/03/18 01:22:16;;;;;;;0.00;0.00;;;;;;;;;;4923590;29;20016;-67
2022/03/18 01:24:41;;;;;;;0.00;0.00;;;;;;;;;;4922224;29;20489;-66
2022/03/18 01:27:06;;;;;;;0.20;0.20;;;;;;;;;;4925807;29;20516;-66
2022/03/18 01:29:32;;;;;;;0.00;0.00;;;;;;;;;;4925220;29;20039;-67
2022/03/18 01:31:58;;;;;;;0.30;0.30;;;;;;;;;;4925637;29;20031;-68
2022/03/18 01:34:23;;;;;;;0.00;0.00;;;;;;;;;;4919019;29;20111;-68
2022/03/18 01:36:49;;;;;;;0.00;0.00;;;;;;;;;;4923919;29;20503;-68
2022/03/18 01:39:14;;;;;;;0.20;0.10;;;;;;;;;;4927015;29;20110;-68
2022/03/18 01:41:40;;;;;;;0.35;0.35;;;;;;;;;;4924041;29;20096;-68
2022/03/18 01:44:08;;;;;;;0.00;0.00;;;;;;;;;;4926204;29;20084;-68
2022/03/18 01:46:33;;;;;;;0.35;0.35;;;;;;;;;;4924359;29;20485;-68
2022/03/18 01:48:59;;;;;;;0.00;0.00;;;;;;;;;;4924194;29;20036;-67
2022/03/18 01:51:24;;;;;;;0.00;0.00;;;;;;;;;;4925478;29;20032;-67
2022/03/18 01:54:44;;;;;;;0.00;0.00;;;;;;;;;;4921767;29;20027;-67
2022/03/18 01:56:34;;;;;;;0.00;0.00;;;;;;;;;;4924917;29;20114;-68
2022/03/18 01:59:00;;;;;;;0.00;0.00;;;;;;;;;;4926053;29;20549;-70
2022/03/18 02:01:25;;;;;;;0.00;0.00;;;;;;;;;;4921287;29;20070;-68
2022/03/18 02:03:50;;;;;;;0.00;0.00;;;;;;;;;;4919113;29;20462;-69
2022/03/18 02:06:15;;;;;;;0.00;0.00;;;;;;;;;;4924381;29;20064;-68
2022/03/18 02:08:44;;;;;;;0.20;0.20;;;;;;;;;;4929051;29;20111;-68
2022/03/18 02:11:10;;;;;;;0.22;0.22;;;;;;;;;;4907370;29;20029;-69
2022/03/18 02:13:35;;;;;;;0.00;0.00;;;;;;;;;;4927140;29;20106;-68
2022/03/18 02:16:03;;;;;;;0.00;0.00;;;;;;;;;;4924499;29;20427;-69
2022/03/18 02:18:28;;;;;;;0.00;0.00;;;;;;;;;;4927608;29;20068;-69
2022/03/18 02:20:54;;;;;;;0.00;0.00;;;;;;;;;;4924614;29;20095;-69
2022/03/18 02:23:19;;;;;;;0.00;0.00;;;;;;;;;;4927948;29;20016;-69
2022/03/18 02:25:45;;;;;;;0.00;0.00;;;;;;;;;;4906956;29;20031;-68
2022/03/18 02:28:11;;;;;;;0.00;0.00;;;;;;;;;;4928017;29;20095;-68
2022/03/18 02:30:37;;;;;;;0.00;0.00;;;;;;;;;;4924536;29;20016;-67
2022/03/18 02:33:02;;;;;;;0.00;0.00;;;;;;;;;;4923376;29;20103;-68
2022/03/18 02:35:28;;;;;;;0.00;0.00;;;;;;;;;;4925197;29;21117;-68
2022/03/18 02:37:53;;;;;;;0.00;0.00;;;;;;;;;;4927890;29;20075;-67
2022/03/18 02:40:19;;;;;;;0.00;0.00;;;;;;;;;;4923494;29;20111;-68
2022/03/18 02:42:44;;;;;;;0.80;0.80;;;;;;;;;;4927845;29;20118;-69
2022/03/18 02:45:10;;;;;;;0.52;0.32;;;;;;;;;;4925293;29;20038;-66
2022/03/18 02:47:35;;;;;;;0.00;0.00;;;;;;;;;;4929656;29;20023;-65
2022/03/18 02:50:01;;;;;;;0.00;0.00;;;;;;;;;;4925376;29;20374;-67
2022/03/18 02:52:26;;;;;;;0.00;0.00;;;;;;;;;;4928353;29;20606;-67
2022/03/18 02:54:51;;;;;;;2.38;0.60;;;;;;;;;;4928246;29;20028;-69
2022/03/18 02:57:16;;;;;;;0.00;0.00;;;;;;;;;;4930468;29;20035;-68
2022/03/18 02:59:42;;;;;;;0.00;0.00;;;;;;;;;;4923497;29;20575;-69
2022/03/18 03:02:07;;;;;;;0.00;0.00;;;;;;;;;;4929860;29;20020;-68
2022/03/18 03:04:32;;;;;;;0.00;0.00;;;;;;;;;;4927209;29;20071;-67
2022/03/18 03:09:41;;;;;;;0.00;0.00;;;;;;;;;;4928799;29;20078;-68
2022/03/18 03:12:07;;;;;;;0.00;0.00;;;;;;;;;;4932128;29;20102;-69
2022/03/18 03:14:32;;;;;;;6.45;0.68;;;;;;;;;;4927397;29;20032;-69
2022/03/18 03:16:57;;;;;;;0.32;0.32;;;;;;;;;;4931922;29;20814;-69
2022/03/18 03:19:22;;;;;;;0.40;0.20;;;;;;;;;;4907671;29;20032;-69
2022/03/18 03:21:48;;;;;;;0.10;0.10;;;;;;;;;;4930937;29;20102;-69
2022/03/18 03:24:14;;;;;;;0.00;0.00;;;;;;;;;;4927337;29;20110;-69
2022/03/18 03:26:39;;;;;;;0.00;0.00;;;;;;;;;;4929007;29;20190;-69
2022/03/18 03:29:04;;;;;;;0.10;0.10;;;;;;;;;;4921266;29;20480;-69
2022/03/18 03:31:30;;;;;;;0.00;0.00;;;;;;;;;;4926201;29;20043;-69
2022/03/18 03:33:55;;;;;;;0.00;0.00;;;;;;;;;;4927375;29;20020;-69
2022/03/18 03:36:20;;;;;;;0.10;0.10;;;;;;;;;;4929607;29;20059;-69
2022/03/18 03:38:45;;;;;;;0.00;0.00;;;;;;;;;;4925868;29;20122;-68
2022/03/18 03:41:11;;;;;;;0.00;0.00;;;;;;;;;;4929151;29;20160;-69
2022/03/18 03:43:36;;;;;;;0.00;0.00;;;;;;;;;;4927079;29;20095;-70
2022/03/18 03:46:01;;;;;;;0.00;0.00;;;;;;;;;;4929721;29;20043;-69
2022/03/18 03:48:27;;;;;;;0.00;0.00;;;;;;;;;;4923261;29;20019;-68
2022/03/18 03:50:53;;;;;;;0.00;0.00;;;;;;;;;;4928915;29;20046;-69
2022/03/18 03:53:18;;;;;;;0.00;0.00;;;;;;;;;;4928319;29;20031;-69
2022/03/18 03:55:43;;;;;;;0.00;0.00;;;;;;;;;;4927722;29;20463;-69
2022/03/18 03:58:09;;;;;;;0.00;0.00;;;;;;;;;;4925891;29;20036;-68
2022/03/18 04:00:37;;;;;;;0.00;0.00;;;;;;;;;;4925853;29;20075;-68
2022/03/18 04:03:03;;;;;;;0.00;0.00;;;;;;;;;;4927551;29;20035;-69
2022/03/18 04:05:30;;;;;;;0.00;0.00;;;;;;;;;;4927732;29;20613;-68
2022/03/18 04:07:55;;;;;;;0.00;0.00;;;;;;;;;;4928395;29;20019;-69
2022/03/18 04:10:20;;;;;;;0.00;0.00;;;;;;;;;;4925208;29;20449;-66
2022/03/18 04:12:45;;;;;;;0.00;0.00;;;;;;;;;;4929018;29;20449;-66
2022/03/18 04:15:11;;;;;;;0.00;0.00;;;;;;;;;;4929424;29;20449;-66
2022/03/18 04:17:37;;;;;;;0.00;0.00;;;;;;;;;;4927366;29;20024;-66
2022/03/18 04:20:04;;;;;;;0.00;0.00;;;;;;;;;;4926326;29;20481;-65
2022/03/18 04:22:30;;;;;;;0.00;0.00;;;;;;;;;;4926820;29;20066;-68
2022/03/18 04:24:55;;;;;;;0.00;0.00;;;;;;;;;;4928548;29;20481;-68
2022/03/18 04:27:21;;;;;;;0.00;0.00;;;;;;;;;;4922478;29;20028;-68
2022/03/18 04:29:46;;;;;;;0.03;0.03;;;;;;;;;;4925346;29;20039;-67
2022/03/18 04:32:11;;;;;;;0.00;0.00;;;;;;;;;;4927979;29;20053;-66
2022/03/18 04:34:37;;;;;;;0.00;0.00;;;;;;;;;;4928049;29;21537;-65
2022/03/18 04:37:02;;;;;;;0.00;0.00;;;;;;;;;;4928084;29;20036;-66
2022/03/18 04:39:27;;;;;;;0.00;0.00;;;;;;;;;;4925967;29;20032;-67
2022/03/18 04:41:52;;;;;;;0.00;0.00;;;;;;;;;;4928052;29;20028;-64
2022/03/18 04:44:20;;;;;;;0.00;0.00;;;;;;;;;;4925186;29;20035;-65
2022/03/18 04:46:48;;;;;;;0.00;0.00;;;;;;;;;;4927371;29;20047;-65
2022/03/18 04:49:13;;;;;;;0.20;0.20;;;;;;;;;;4926557;29;20028;-64
2022/03/18 04:51:38;;;;;;;0.00;0.00;;;;;;;;;;4926758;29;20080;-63
2022/03/18 04:54:03;;;;;;;0.03;0.03;;;;;;;;;;4925905;29;20083;-63
2022/03/18 04:59:12;;;;;;;0.00;0.00;;;;;;;;;;4926897;29;20114;-67
2022/03/18 05:01:38;;;;;;;0.93;0.93;;;;;;;;;;4925791;29;20425;-67
2022/03/18 05:04:03;;;;;;;0.00;0.00;;;;;;;;;;4923642;29;20032;-67
2022/03/18 05:06:29;;;;;;;1.00;0.75;;;;;;;;;;4910620;29;20051;-67
2022/03/18 05:08:54;;;;;;;0.77;0.60;;;;;;;;;;4926523;29;20020;-66
2022/03/18 05:11:19;;;;;;;0.55;0.55;;;;;;;;;;4926568;29;20030;-64
2022/03/18 05:13:44;;;;;;;1.48;0.65;;;;;;;;;;4926123;29;20040;-65
2022/03/18 05:16:10;;;;;;;0.00;0.00;;;;;;;;;;4927294;29;20032;-65
2022/03/18 05:18:35;;;;;;;0.20;0.20;;;;;;;;;;4925329;29;20180;-65
2022/03/18 05:21:00;;;;;;;0.45;0.45;;;;;;;;;;4927819;29;20055;-65
2022/03/18 05:23:25;;;;;;;0.00;0.00;;;;;;;;;;4925408;29;20024;-65
2022/03/18 05:25:50;;;;;;;0.00;0.00;;;;;;;;;;4921025;29;20095;-67
2022/03/18 05:28:17;;;;;;;0.00;0.00;;;;;;;;;;4925585;29;20016;-65
2022/03/18 05:30:43;;;;;;;0.00;0.00;;;;;;;;;;4928407;29;20178;-65
2022/03/18 05:33:08;;;;;;;0.10;0.10;;;;;;;;;;4925283;29;20106;-65
2022/03/18 05:35:33;;;;;;;0.00;0.00;;;;;;;;;;4925313;29;20031;-67
2022/03/18 05:37:58;;;;;;;0.40;0.40;;;;;;;;;;4926181;29;20369;-67
2022/03/18 05:40:24;;;;;;;0.00;0.00;;;;;;;;;;4924028;29;20465;-68
2022/03/18 05:42:49;;;;;;;0.00;0.00;;;;;;;;;;4927379;29;20035;-68
2022/03/18 05:45:15;;;;;;;0.00;0.00;;;;;;;;;;4925993;29;20023;-68
2022/03/18 05:47:40;;;;;;;0.00;0.00;;;;;;;;;;4925377;29;20121;-68
2022/03/18 05:50:06;;;;;;;0.00;0.00;;;;;;;;;;4927901;29;20027;-68
2022/03/18 05:52:32;;;;;;;0.17;0.17;;;;;;;;;;4924219;29;20082;-68
2022/03/18 05:54:57;;;;;;;0.00;0.00;;;;;;;;;;4922143;29;20864;-67
2022/03/18 05:57:26;;;;;;;0.00;0.00;;;;;;;;;;4925046;29;20167;-67
2022/03/18 05:59:52;;;;;;;0.00;0.00;;;;;;;;;;4926902;29;20030;-68
2022/03/18 06:02:17;;;;;;;0.00;0.00;;;;;;;;;;4925369;29;20440;-69
2022/03/18 06:04:42;;;;;;;2.28;2.17;;;;;;;;;;4928142;29;20048;-67
2022/03/18 06:07:08;;;;;;;0.00;0.00;;;;;;;;;;4925661;29;20528;-67
2022/03/18 06:12:17;;;;;;;0.80;0.40;;;;;;;;;;4925789;29;20091;-68
2022/03/18 06:14:42;;;;;;;0.00;0.00;;;;;;;;;;4928142;29;20035;-68
2022/03/18 06:17:07;;;;;;;0.00;0.00;;;;;;;;;;4922872;29;20028;-68
2022/03/18 06:19:33;;;;;;;0.00;0.00;;;;;;;;;;4924325;29;20035;-66
2022/03/18 06:21:59;;;;;;;0.35;0.35;;;;;;;;;;4921729;29;20015;-67
2022/03/18 06:24:25;;;;;;;0.00;0.00;;;;;;;;;;4930419;29;20020;-68
2022/03/18 06:26:50;;;;;;;0.00;0.00;;;;;;;;;;4923469;29;20461;-67
2022/03/18 06:29:16;;;;;;;0.00;0.00;;;;;;;;;;4928361;29;20032;-67
2022/03/18 06:31:41;;;;;;;0.00;0.00;;;;;;;;;;4923109;29;20030;-67
2022/03/18 06:34:07;;;;;;;0.10;0.10;;;;;;;;;;4923384;29;20048;-67
2022/03/18 06:36:32;;;;;;;0.45;0.40;;;;;;;;;;4926397;29;20039;-67
2022/03/18 06:38:58;;;;;;;4.30;4.05;;;;;;;;;;4928227;29;20036;-67
2022/03/18 06:41:23;;;;;;;0.10;0.10;;;;;;;;;;4928231;29;20028;-67
2022/03/18 06:43:49;;;;;;;0.00;0.00;;;;;;;;;;4930297;29;20055;-65
2022/03/18 06:46:14;;;;;;;0.00;0.00;;;;;;;;;;4928952;29;20528;-66
2022/03/18 06:48:40;;;;;;;0.45;0.38;;;;;;;;;;4928345;29;20084;-66
2022/03/18 06:51:05;;;;;;;0.30;0.30;;;;;;;;;;4924258;29;20100;-65
2022/03/18 06:53:31;;;;;;;0.00;0.00;;;;;;;;;;4927449;29;20024;-66
2022/03/18 06:55:56;;;;;;;0.00;0.00;;;;;;;;;;4928593;29;20035;-67
2022/03/18 06:58:21;;;;;;;0.00;0.00;;;;;;;;;;4923279;29;20107;-68
2022/03/18 07:00:46;;;;;;;1.95;1.85;;;;;;;;;;4928296;29;20015;-67
2022/03/18 07:03:13;;;;;;;0.03;0.03;;;;;;;;;;4925554;29;20023;-69
2022/03/18 07:05:38;;;;;;;0.10;0.10;;;;;;;;;;4928698;29;20083;-68
2022/03/18 07:08:03;;;;;;;0.90;0.90;;;;;;;;;;4928096;29;20023;-68
2022/03/18 07:10:29;;;;;;;0.65;0.65;;;;;;;;;;4929021;29;20035;-66
2022/03/18 07:12:54;;;;;;;0.00;0.00;;;;;;;;;;4929247;29;20023;-68
2022/03/18 07:15:19;;;;;;;0.45;0.45;;;;;;;;;;4930504;29;20035;-67
2022/03/18 07:18:00;;;;;;;2.88;0.95;;;;;;;;;;4927043;29;20032;-70
2022/03/18 07:20:32;;;;;;;0.00;0.00;;;;;;;;;;4922529;29;20024;-67
2022/03/18 07:23:00;;;;;;;0.00;0.00;;;;;;;;;;4927675;29;20028;-64
2022/03/18 07:25:25;;;;;;;0.55;0.55;;;;;;;;;;4928902;29;20532;-66
2022/03/18 07:27:51;;;;;;;0.00;0.00;;;;;;;;;;4926675;29;20024;-65
2022/03/18 07:30:16;;;;;;;0.45;0.45;;;;;;;;;;4926620;29;20086;-68
2022/03/18 07:32:41;;;;;;;0.47;0.47;;;;;;;;;;4926265;29;20075;-68
2022/03/18 07:35:07;;;;;;;0.88;0.88;;;;;;;;;;4927007;29;20045;-67
2022/03/18 07:37:33;;;;;;;1.23;1.13;;;;;;;;;;4927448;29;20378;-69
2022/03/18 07:39:58;;;;;;;0.40;0.40;;;;;;;;;;4926108;29;20102;-68
2022/03/18 07:42:23;;;;;;;0.20;0.20;;;;;;;;;;4927405;29;20015;-69
2022/03/18 07:44:48;;;;;;;0.00;0.00;;;;;;;;;;4924786;29;20357;-69
2022/03/18 07:47:14;;;;;;;0.85;0.85;;;;;;;;;;4918703;29;20032;-69
2022/03/18 07:49:39;;;;;;;0.70;0.70;;;;;;;;;;4912536;29;20021;-68
2022/03/18 07:52:04;;;;;;;0.00;0.00;;;;;;;;;;4921304;29;20024;-68
2022/03/18 07:54:29;;;;;;;3.75;2.13;;;;;;;;;;4916820;29;20477;-68
2022/03/18 07:56:55;;;;;;;0.32;0.28;;;;;;;;;;4921348;29;20039;-68
2022/03/18 07:59:20;;;;;;;0.00;0.00;;;;;;;;;;4921714;29;20024;-67
2022/03/18 08:01:45;;;;;;;1.17;1.15;;;;;;;;;;4928670;29;20035;-67
2022/03/18 08:04:12;;;;;;;1.00;1.00;;;;;;;;;;4927490;29;20397;-68
2022/03/18 08:06:38;;;;;;;0.35;0.35;;;;;;;;;;4925849;29;20043;-68
2022/03/18 08:09:03;;;;;;;1.45;1.20;;;;;;;;;;4924342;29;20027;-67
2022/03/18 08:11:28;;;;;;;0.10;0.10;;;;;;;;;;4927002;29;20071;-68
2022/03/18 08:13:54;;;;;;;0.57;0.57;;;;;;;;;;4924363;29;20051;-68
2022/03/18 08:16:19;;;;;;;0.75;0.75;;;;;;;;;;4929103;29;20032;-68
2022/03/18 08:18:44;;;;;;;8.88;2.78;;;;;;;;;;4923589;29;20207;-68
2022/03/18 08:21:10;;;;;;;0.70;0.70;;;;;;;;;;4912019;29;20387;-68
2022/03/18 08:23:35;;;;;;;17.83;8.52;;;;;;;;;;4927080;29;20103;-68
2022/03/18 08:26:01;;;;;;;4.30;2.95;;;;;;;;;;4928297;29;20024;-67
2022/03/18 08:28:26;;;;;;;0.52;0.52;;;;;;;;;;4922942;29;20019;-67
2022/03/18 08:30:51;;;;;;;1.17;1.17;;;;;;;;;;4925002;29;20107;-69
2022/03/18 08:33:16;;;;;;;1.27;1.05;;;;;;;;;;4926851;29;20024;-66
2022/03/18 08:35:42;;;;;;;1.08;0.52;;;;;;;;;;4924884;29;20027;-69
2022/03/18 08:38:09;;;;;;;1.35;1.25;;;;;;;;;;4927638;29;20074;-69
2022/03/18 08:40:36;;;;;;;1.48;1.38;;;;;;;;;;4926450;29;20051;-69
2022/03/18 08:43:03;;;;;;;7.53;1.55;;;;;;;;;;4921214;29;20466;-68
2022/03/18 08:45:28;;;;;;;1.85;1.75;;;;;;;;;;4920870;29;20050;-65
2022/03/18 08:47:54;;;;;;;1.48;1.35;;;;;;;;;;4920062;29;20059;-67
2022/03/18 08:50:21;;;;;;;0.52;0.52;;;;;;;;;;4921999;29;20046;-66
2022/03/18 08:52:47;;;;;;;1.75;1.67;;;;;;;;;;4920644;29;20470;-71
2022/03/18 08:55:13;;;;;;;2.92;1.95;;;;;;;;;;4923599;29;20062;-72
2022/03/18 08:57:38;;;;;;;3.15;1.20;;;;;;;;;;4923811;29;20040;-69
2022/03/18 09:00:06;;;;;;;6.30;5.72;;;;;;;;;;4918584;29;20058;-69
2022/03/18 09:02:32;;;;;;;1.80;1.70;;;;;;;;;;4918350;29;20034;-69
2022/03/18 09:04:57;;;;;;;0.85;0.85;;;;;;;;;;4923354;29;20048;-69
2022/03/18 09:07:26;;;;;;;0.98;0.98;;;;;;;;;;4919496;29;21907;-69
2022/03/18 09:09:51;;;;;;;1.95;1.38;;;;;;;;;;4900806;29;20055;-67
2022/03/18 09:12:18;;;;;;;1.13;1.13;;;;;;;;;;4924517;29;20059;-68
2022/03/18 09:14:43;;;;;;;1.35;0.70;;;;;;;;;;4919394;29;20092;-67
2022/03/18 09:17:08;;;;;;;3.30;2.60;;;;;;;;;;4920661;29;20031;-66
2022/03/18 09:19:37;;;;;;;5.25;1.92;;;;;;;;;;4918902;29;20031;-64
2022/03/18 09:22:02;;;;;;;19.42;1.35;;;;;;;;;;4920923;29;20119;-64
2022/03/18 09:24:30;;;;;;;0.15;0.15;;;;;;;;;;4917461;29;20138;-63
2022/03/18 09:26:55;;;;;;;2.58;1.63;;;;;;;;;;4902876;29;20024;-63
2022/03/18 09:29:24;;;;;;;4.65;4.20;;;;;;;;;;4921589;29;20361;-62
2022/03/18 09:31:50;;;;;;;;;;;;;;;;;;4927416;29;20059;-64
2022/03/18 09:34:15;;;;;;;2.67;2.15;;;;;;;;;;4923583;29;19961;-62
2022/03/18 09:36:41;;;;;;;3.30;1.88;;;;;;;;;;4920943;29;20679;-65
2022/03/18 09:39:06;;;;;;;1.77;1.73;;;;;;;;;;4922661;29;20425;-67
2022/03/18 09:41:31;;;;;;;0.47;0.47;;;;;;;;;;4917260;29;20510;-65
2022/03/18 09:43:56;;;;;;;4.03;2.10;;;;;;;;;;4915612;29;20024;-65
2022/03/18 09:46:22;;;;;;;6.18;1.67;;;;;;;;;;4921598;29;20028;-65
2022/03/18 09:48:47;;;;;;;0.00;0.00;;;;;;;;;;4922518;29;20037;-68
2022/03/18 09:51:14;;;;;;;2.08;1.02;;;;;;;;;;4919463;29;20079;-67
2022/03/18 09:53:39;;;;;;;4.82;2.25;;;;;;;;;;4919375;29;20055;-68
2022/03/18 09:56:05;;;;;;;5.85;2.58;;;;;;;;;;4923507;29;20062;-69
2022/03/18 09:58:31;;;;;;;0.20;0.20;;;;;;;;;;4925708;29;20335;-69
2022/03/18 10:01:01;;;;;;;2.05;1.95;;;;;;;;;;4926053;29;20491;-65
2022/03/18 10:03:37;;;;;;;0.28;0.28;;;;;;;;;;4927945;29;20126;-65
2022/03/18 10:06:04;;;;;;;4.30;1.65;;;;;;;;;;4925030;29;20131;-64
2022/03/18 10:08:47;;;;;;;0.90;0.57;;;;;;;;;;4908784;29;20032;-64
2022/03/18 10:11:31;;;;;;;1.40;1.17;;;;;;;;;;4923433;29;20019;-64
2022/03/18 10:14:01;;;;;;;2.45;1.63;;;;;;;;;;4925143;29;20020;-64
2022/03/18 10:16:32;;;;;;;0.55;0.55;;;;;;;;;;4926955;29;20075;-64
2022/03/18 10:18:57;;;;;;;0.88;0.88;;;;;;;;;;4925821;29;20071;-64
2022/03/18 10:21:22;;;;;;;1.92;1.15;;;;;;;;;;4922244;29;20055;-64
2022/03/18 10:23:48;;;;;;;3.97;2.50;;;;;;;;;;4928643;29;20032;-64
2022/03/18 10:26:14;;;;;;;1.58;1.48;;;;;;;;;;4927684;29;20477;-65
2022/03/18 10:28:41;;;;;;;0.75;0.75;;;;;;;;;;4927702;29;20031;-63
2022/03/18 10:31:20;;;;;;;0.50;0.47;;;;;;;;;;4923792;29;20062;-66
2022/03/18 10:39:24;;;;;;;0.85;0.85;;;;;;;;;;4931442;29;20512;-62
2022/03/18 10:41:49;;;;;;;0.50;0.50;;;;;;;;;;4924553;29;20019;-64
2022/03/18 10:44:17;;;;;;;0.63;0.63;;;;;;;;;;4929842;29;20094;-63
2022/03/18 10:46:42;;;;;;;0.70;0.70;;;;;;;;;;4932227;29;20514;-63
2022/03/18 10:49:07;;;;;;;12.98;4.65;;;;;;;;;;4932900;29;20063;-63
2022/03/18 10:51:33;;;;;;;0.80;0.73;;;;;;;;;;4929629;29;20070;-62
2022/03/18 10:53:59;;;;;;;0.70;0.70;;;;;;;;;;4934062;29;20051;-61
2022/03/18 10:56:25;;;;;;;0.93;0.90;;;;;;;;;;4931271;29;20074;-62
2022/03/18 10:58:50;;;;;;;0.43;0.43;;;;;;;;;;4934239;29;20020;-63
2022/03/18 11:01:16;;;;;;;0.70;0.70;;;;;;;;;;4929812;29;20011;-65
2022/03/18 11:03:41;;;;;;;0.55;0.55;;;;;;;;;;4932863;29;20031;-63
2022/03/18 11:06:07;;;;;;;0.00;0.00;;;;;;;;;;4930983;29;20039;-63
2022/03/18 11:08:38;;;;;;;0.45;0.45;;;;;;;;;;4930382;29;20038;-63
2022/03/18 11:11:07;;;;;;;0.17;0.10;;;;;;;;;;4924171;29;20032;-61
2022/03/18 11:13:35;;;;;;;0.30;0.30;;;;;;;;;;4927972;29;20449;-62
2022/03/18 11:16:01;;;;;;;0.22;0.22;;;;;;;;;;4930441;29;20147;-63
2022/03/18 11:18:29;;;;;;;0.75;0.73;;;;;;;;;;4928061;29;20059;-63
2022/03/18 11:20:56;;;;;;;1.35;0.45;;;;;;;;;;4928783;29;20024;-62
2022/03/18 11:23:24;;;;;;;1.15;0.47;;;;;;;;;;4928120;29;20011;-62
2022/03/18 11:25:51;;;;;;;1.67;0.25;;;;;;;;;;4930104;29;20361;-62
2022/03/18 11:28:17;;;;;;;5.63;2.25;;;;;;;;;;4927310;29;20462;-61
2022/03/18 11:30:44;;;;;;;2.63;1.10;;;;;;;;;;4929663;29;20038;-61
2022/03/18 11:33:09;;;;;;;0.20;0.20;;;;;;;;;;4923847;29;20437;-62
2022/03/18 11:35:49;;;;;;;0.77;0.77;;;;;;;;;;4918797;29;20029;-64
2022/03/18 11:38:15;;;;;;;2.05;1.42;;;;;;;;;;4922482;29;20484;-65
2022/03/18 11:41:14;;;;;;;0.00;0.00;;;;;;;;;;4926184;29;20055;-64
2022/03/18 11:43:39;;;;;;;5.03;1.50;;;;;;;;;;4893144;29;20095;-64
2022/03/18 11:46:13;;;;;;;0.00;0.00;;;;;;;;;;4921311;29;20023;-64
2022/03/18 11:48:46;;;;;;;1.38;0.73;;;;;;;;;;4923600;29;20542;-64
2022/03/18 11:51:31;;;;;;;0.32;0.32;;;;;;;;;;4924424;29;20016;-64
2022/03/18 11:54:00;;;;;;;0.35;0.35;;;;;;;;;;4912010;29;20027;-63
2022/03/18 11:56:44;;;;;;;0.70;0.70;;;;;;;;;;4926790;29;20440;-64
2022/03/18 11:59:25;;;;;;;0.10;0.10;;;;;;;;;;4926303;29;20032;-63
2022/03/18 12:01:53;;;;;;;2.80;1.40;;;;;;;;;;4925385;29;20023;-64
2022/03/18 12:04:33;;;;;;;0.03;0.03;;;;;;;;;;4926538;29;20022;-64
2022/03/18 12:07:09;;;;;;;0.10;0.10;;;;;;;;;;4924219;29;20039;-64
2022/03/18 12:09:53;;;;;;;0.08;0.00;;;;;;;;;;4925161;29;20032;-63
2022/03/18 12:12:24;;;;;;;0.00;0.00;;;;;;;;;;4931470;29;20138;-65
2022/03/18 12:14:53;;;;;;;2.50;0.63;;;;;;;;;;4926734;29;20024;-66
2022/03/18 12:17:18;;;;;;;0.00;0.00;;;;;;;;;;4928908;29;20023;-67
2022/03/18 12:19:54;;;;;;;8.48;0.75;;;;;;;;;;4925586;29;20043;-68
2022/03/18 12:22:20;;;;;;;0.40;0.40;;;;;;;;;;4929974;29;20144;-67
2022/03/18 12:24:49;;;;;;;0.38;0.38;;;;;;;;;;4925702;29;20036;-65
2022/03/18 12:27:21;;;;;;;2.25;0.73;;;;;;;;;;4925274;29;20035;-67
2022/03/18 12:29:47;;;;;;;0.63;0.52;;;;;;;;;;4924800;29;20087;-65
2022/03/18 12:32:18;;;;;;;1.92;0.63;;;;;;;;;;4927930;29;20030;-66
2022/03/18 12:34:50;;;;;;;0.80;0.80;;;;;;;;;;4925244;29;20035;-64
2022/03/18 12:37:17;;;;;;;0.65;0.55;;;;;;;;;;4924233;29;20417;-64
2022/03/18 12:39:43;;;;;;;0.40;0.40;;;;;;;;;;4926412;29;20035;-65
2022/03/18 12:42:12;;;;;;;1.38;0.75;;;;;;;;;;4926604;29;20083;-65
2022/03/18 12:44:38;;;;;;;1.02;0.40;;;;;;;;;;4924861;29;20030;-64
2022/03/18 12:47:06;;;;;;;0.47;0.20;;;;;;;;;;4927059;29;20114;-64
2022/03/18 12:49:35;;;;;;;4.68;0.63;;;;;;;;;;4926525;29;20059;-62
2022/03/18 12:52:01;;;;;;;1.23;0.68;;;;;;;;;;4907882;29;20093;-63
2022/03/18 12:54:26;;;;;;;0.65;0.65;;;;;;;;;;4926645;29;20051;-62
2022/03/18 12:56:52;;;;;;;0.32;0.30;;;;;;;;;;4924986;29;20052;-61
2022/03/18 12:59:17;;;;;;;0.70;0.43;;;;;;;;;;4928704;29;20067;-63
2022/03/18 13:01:53;;;;;;;5.47;3.03;;;;;;;;;;4926853;29;20039;-63
2022/03/18 13:04:20;;;;;;;0.17;0.13;;;;;;;;;;4927135;29;20453;-63
2022/03/18 13:06:46;;;;;;;0.52;0.52;;;;;;;;;;4918822;29;20054;-63
2022/03/18 13:09:14;;;;;;;3.30;0.40;;;;;;;;;;4921394;29;20107;-66
2022/03/18 13:11:40;;;;;;;0.65;0.20;;;;;;;;;;4921375;29;20032;-67
2022/03/18 13:14:06;;;;;;;0.77;0.77;;;;;;;;;;4922418;29;20024;-67
2022/03/18 13:16:35;;;;;;;0.70;0.70;;;;;;;;;;4926922;29;20450;-67
2022/03/18 13:19:02;;;;;;;0.63;0.63;;;;;;;;;;4924078;29;20334;-67
2022/03/18 13:21:28;;;;;;;0.82;0.57;;;;;;;;;;4921189;29;20400;-67
2022/03/18 13:23:55;;;;;;;1.30;0.85;;;;;;;;;;4922963;29;20809;-67
2022/03/18 13:26:20;;;;;;;0.20;0.20;;;;;;;;;;4927087;29;20461;-69
2022/03/18 13:28:48;;;;;;;0.25;0.25;;;;;;;;;;4920417;29;20031;-67
2022/03/18 13:33:58;;;;;;;0.40;0.40;;;;;;;;;;4921409;29;20150;-68
2022/03/18 13:36:23;;;;;;;0.28;0.20;;;;;;;;;;4925200;29;20975;-68
2022/03/18 13:38:49;;;;;;;7.20;0.98;;;;;;;;;;4923259;29;20035;-68
2022/03/18 13:41:14;;;;;;;0.43;0.40;;;;;;;;;;4923980;29;20090;-68
2022/03/18 13:43:40;;;;;;;6.13;0.93;;;;;;;;;;4922761;29;20496;-69
2022/03/18 13:46:12;;;;;;;0.85;0.85;;;;;;;;;;4928498;29;20098;-67
2022/03/18 13:48:38;;;;;;;0.00;0.00;;;;;;;;;;4925380;29;20015;-68
2022/03/18 13:51:06;;;;;;;1.95;0.57;;;;;;;;;;4924752;29;20042;-67
2022/03/18 13:53:31;;;;;;;1.30;0.50;;;;;;;;;;4924191;29;20039;-67
2022/03/18 13:55:58;;;;;;;0.75;0.75;;;;;;;;;;4926487;29;20048;-67
2022/03/18 13:58:24;;;;;;;0.22;0.22;;;;;;;;;;4925033;29;20023;-68
2022/03/18 14:00:49;;;;;;;0.65;0.65;;;;;;;;;;4927019;29;20091;-68
2022/03/18 14:03:15;;;;;;;1.55;1.10;;;;;;;;;;4916347;29;20024;-62
2022/03/18 14:05:44;;;;;;;0.75;0.45;;;;;;;;;;4916371;29;20481;-63
2022/03/18 14:08:10;;;;;;;1.50;1.05;;;;;;;;;;4917728;29;20056;-63
2022/03/18 14:10:36;;;;;;;0.98;0.80;;;;;;;;;;4922198;29;20125;-62
2022/03/18 14:13:03;;;;;;;3.28;1.90;;;;;;;;;;4923273;29;20015;-62
2022/03/18 14:15:36;;;;;;;1.70;1.60;;;;;;;;;;4920492;29;20039;-63
2022/03/18 14:18:01;;;;;;;0.10;0.10;;;;;;;;;;4899478;29;20363;-63
2022/03/18 14:20:27;;;;;;;0.28;0.22;;;;;;;;;;4923653;29;20039;-62
2022/03/18 14:22:54;;;;;;;14.45;1.88;;;;;;;;;;4922228;29;20035;-61
2022/03/18 14:25:20;;;;;;;0.10;0.03;;;;;;;;;;4918375;29;20072;-62
2022/03/18 14:27:51;;;;;;;1.27;1.25;;;;;;;;;;4920063;29;20046;-62
2022/03/18 14:30:18;;;;;;;0.82;0.80;;;;;;;;;;4921365;29;20027;-61
2022/03/18 14:32:44;;;;;;;3.72;0.50;;;;;;;;;;4922101;29;20040;-62
2022/03/18 14:35:10;;;;;;;0.30;0.30;;;;;;;;;;4922049;29;20071;-63
2022/03/18 14:37:35;;;;;;;1.88;1.17;;;;;;;;;;4927354;29;20020;-62
2022/03/18 14:40:02;;;;;;;0.50;0.50;;;;;;;;;;4926373;29;20024;-62
2022/03/18 14:42:27;;;;;;;0.47;0.47;;;;;;;;;;4906469;29;20031;-62
2022/03/18 14:44:58;;;;;;;0.15;0.15;;;;;;;;;;4929908;29;20038;-62
2022/03/18 14:47:23;;;;;;;7.45;1.02;;;;;;;;;;4930631;29;20034;-63
2022/03/18 14:49:48;;;;;;;8.18;1.20;;;;;;;;;;4928434;29;20027;-62
2022/03/18 14:52:14;;;;;;;1.25;1.10;;;;;;;;;;4927727;29;20038;-63
2022/03/18 14:57:23;;;;;;;1.95;1.27;;;;;;;;;;4927922;29;20042;-62
2022/03/18 14:59:48;;;;;;;0.68;0.65;;;;;;;;;;4924597;29;20031;-59
2022/03/18 15:02:16;;;;;;;1.35;1.20;;;;;;;;;;4928541;29;20023;-61
2022/03/18 15:04:42;;;;;;;1.30;0.73;;;;;;;;;;4926613;29;20042;-62
2022/03/18 15:07:07;;;;;;;0.60;0.60;;;;;;;;;;4931481;29;20147;-61